sensor_id;sensor_type;location;lat;lon;timestamp;P1;durP1;ratioP1;P2;durP2;ratioP2
45318;SDS011;31057;48.498;32.260;2022-12-10T00:00:09;31.30;;;13.82;;
45318;SDS011;31057;48.498;32.260;2022-12-10T02:18:09;342.90;;;34.30;;
45318;SDS011;31057;48.498;32.260;2022-12-10T02:20:26;94.85;;;14.77;;
45318;SDS011;31057;48.498;32.260;2022-12-10T02:22:45;431.13;;;41.80;;
45318;SDS011;31057;48.498;32.260;2022-12-10T02:24:51;198.32;;;21.90;;
45318;SDS011;31057;48.498;32.260;2022-12-10T02:27:04;585.72;;;48.65;;
45318;SDS011;31057;48.498;32.260;2022-12-10T02:29:18;356.60;;;32.60;;
45318;SDS011;31057;48.498;32.260;2022-12-10T02:31:26;248.35;;;23.55;;
45318;SDS011;31057;48.498;32.260;2022-12-10T02:33:31;378.08;;;36.15;;
45318;SDS011;31057;48.498;32.260;2022-12-10T02:35:37;138.52;;;17.80;;
45318;SDS011;31057;48.498;32.260;2022-12-10T02:38:03;228.98;;;23.80;;
45318;SDS011;31057;48.498;32.260;2022-12-10T02:40:09;367.13;;;28.73;;
45318;SDS011;31057;48.498;32.260;2022-12-10T02:42:16;190.30;;;19.00;;
45318;SDS011;31057;48.498;32.260;2022-12-10T02:44:21;249.70;;;22.45;;
45318;SDS011;31057;48.498;32.260;2022-12-10T02:46:25;73.10;;;12.75;;
45318;SDS011;31057;48.498;32.260;2022-12-10T02:48:32;260.35;;;26.38;;
45318;SDS011;31057;48.498;32.260;2022-12-10T02:50:35;381.00;;;36.72;;
45318;SDS011;31057;48.498;32.260;2022-12-10T02:52:37;138.27;;;16.50;;
45318;SDS011;31057;48.498;32.260;2022-12-10T02:56:44;151.25;;;15.98;;
45318;SDS011;31057;48.498;32.260;2022-12-10T03:01:06;292.25;;;29.75;;
45318;SDS011;31057;48.498;32.260;2022-12-10T03:03:23;376.27;;;35.00;;
45318;SDS011;31057;48.498;32.260;2022-12-10T03:08:10;140.95;;;16.75;;
45318;SDS011;31057;48.498;32.260;2022-12-10T03:12:42;324.75;;;31.75;;
45318;SDS011;31057;48.498;32.260;2022-12-10T03:14:48;99.55;;;16.30;;
45318;SDS011;31057;48.498;32.260;2022-12-10T03:16:53;577.83;;;48.33;;
45318;SDS011;31057;48.498;32.260;2022-12-10T03:19:05;345.63;;;31.20;;
45318;SDS011;31057;48.498;32.260;2022-12-10T03:21:11;126.50;;;16.67;;
45318;SDS011;31057;48.498;32.260;2022-12-10T03:23:16;176.70;;;19.90;;
45318;SDS011;31057;48.498;32.260;2022-12-10T03:25:22;348.20;;;34.42;;
45318;SDS011;31057;48.498;32.260;2022-12-10T03:27:26;141.60;;;20.92;;
45318;SDS011;31057;48.498;32.260;2022-12-10T03:29:34;192.30;;;21.60;;
45318;SDS011;31057;48.498;32.260;2022-12-10T03:31:41;213.25;;;23.75;;
45318;SDS011;31057;48.498;32.260;2022-12-10T03:33:44;302.15;;;31.52;;
45318;SDS011;31057;48.498;32.260;2022-12-10T03:35:47;654.40;;;64.13;;
45318;SDS011;31057;48.498;32.260;2022-12-10T03:37:50;538.20;;;50.05;;
45318;SDS011;31057;48.498;32.260;2022-12-10T03:39:53;417.77;;;35.72;;
45318;SDS011;31057;48.498;32.260;2022-12-10T03:41:57;431.80;;;38.42;;
45318;SDS011;31057;48.498;32.260;2022-12-10T03:43:59;455.67;;;44.80;;
45318;SDS011;31057;48.498;32.260;2022-12-10T03:46:01;654.97;;;61.63;;
45318;SDS011;31057;48.498;32.260;2022-12-10T03:50:05;272.45;;;25.73;;
45318;SDS011;31057;48.498;32.260;2022-12-10T03:52:08;396.48;;;37.08;;
45318;SDS011;31057;48.498;32.260;2022-12-10T03:54:10;323.08;;;31.10;;
45318;SDS011;31057;48.498;32.260;2022-12-10T03:58:14;368.17;;;34.03;;
45318;SDS011;31057;48.498;32.260;2022-12-10T04:00:20;341.10;;;33.25;;
45318;SDS011;31057;48.498;32.260;2022-12-10T04:02:22;662.08;;;56.17;;
45318;SDS011;31057;48.498;32.260;2022-12-10T04:04:25;305.50;;;31.48;;
45318;SDS011;31057;48.498;32.260;2022-12-10T04:06:28;537.83;;;56.30;;
45318;SDS011;31057;48.498;32.260;2022-12-10T04:08:29;170.05;;;26.25;;
45318;SDS011;31057;48.498;32.260;2022-12-10T04:10:34;447.27;;;38.70;;
45318;SDS011;31057;48.498;32.260;2022-12-10T04:12:38;599.95;;;51.83;;
45318;SDS011;31057;48.498;32.260;2022-12-10T04:14:40;575.10;;;53.58;;
45318;SDS011;31057;48.498;32.260;2022-12-10T04:17:00;718.25;;;66.85;;
45318;SDS011;31057;48.498;32.260;2022-12-10T04:21:05;200.23;;;26.77;;
45318;SDS011;31057;48.498;32.260;2022-12-10T04:23:26;222.27;;;25.90;;
45318;SDS011;31057;48.498;32.260;2022-12-10T04:25:46;487.88;;;46.05;;
45318;SDS011;31057;48.498;32.260;2022-12-10T04:28:07;119.38;;;21.35;;
45318;SDS011;31057;48.498;32.260;2022-12-10T04:30:10;326.60;;;35.78;;
45318;SDS011;31057;48.498;32.260;2022-12-10T04:32:13;291.88;;;32.28;;
45318;SDS011;31057;48.498;32.260;2022-12-10T04:34:15;454.63;;;47.35;;
45318;SDS011;31057;48.498;32.260;2022-12-10T04:38:19;290.98;;;30.27;;
45318;SDS011;31057;48.498;32.260;2022-12-10T04:40:21;503.17;;;49.67;;
45318;SDS011;31057;48.498;32.260;2022-12-10T04:42:23;652.33;;;62.35;;
45318;SDS011;31057;48.498;32.260;2022-12-10T04:44:25;430.15;;;45.25;;
45318;SDS011;31057;48.498;32.260;2022-12-10T04:46:27;462.80;;;48.25;;
45318;SDS011;31057;48.498;32.260;2022-12-10T04:48:30;519.40;;;53.15;;
45318;SDS011;31057;48.498;32.260;2022-12-10T04:50:32;181.23;;;26.38;;
45318;SDS011;31057;48.498;32.260;2022-12-10T04:52:34;324.60;;;39.50;;
45318;SDS011;31057;48.498;32.260;2022-12-10T04:54:36;647.25;;;64.22;;
45318;SDS011;31057;48.498;32.260;2022-12-10T04:56:39;548.10;;;52.85;;
45318;SDS011;31057;48.498;32.260;2022-12-10T04:58:41;489.13;;;49.53;;
45318;SDS011;31057;48.498;32.260;2022-12-10T05:00:43;366.70;;;40.17;;
45318;SDS011;31057;48.498;32.260;2022-12-10T05:02:47;567.65;;;57.90;;
45318;SDS011;31057;48.498;32.260;2022-12-10T05:04:50;436.70;;;52.92;;
45318;SDS011;31057;48.498;32.260;2022-12-10T05:06:51;712.90;;;67.95;;
45318;SDS011;31057;48.498;32.260;2022-12-10T05:11:00;255.45;;;32.30;;
45318;SDS011;31057;48.498;32.260;2022-12-10T05:13:05;481.13;;;54.35;;
45318;SDS011;31057;48.498;32.260;2022-12-10T05:15:08;672.58;;;67.13;;
45318;SDS011;31057;48.498;32.260;2022-12-10T05:17:10;271.60;;;35.60;;
45318;SDS011;31057;48.498;32.260;2022-12-10T05:19:12;251.27;;;33.10;;
45318;SDS011;31057;48.498;32.260;2022-12-10T05:21:14;98.93;;;30.83;;
45318;SDS011;31057;48.498;32.260;2022-12-10T05:23:18;162.88;;;31.08;;
45318;SDS011;31057;48.498;32.260;2022-12-10T05:25:29;354.00;;;44.65;;
45318;SDS011;31057;48.498;32.260;2022-12-10T05:27:33;339.00;;;45.53;;
45318;SDS011;31057;48.498;32.260;2022-12-10T05:29:35;273.48;;;40.20;;
45318;SDS011;31057;48.498;32.260;2022-12-10T05:31:37;109.38;;;31.83;;
45318;SDS011;31057;48.498;32.260;2022-12-10T05:33:39;161.77;;;31.88;;
45318;SDS011;31057;48.498;32.260;2022-12-10T05:37:43;83.05;;;30.63;;
45318;SDS011;31057;48.498;32.260;2022-12-10T05:39:44;149.55;;;34.88;;
45318;SDS011;31057;48.498;32.260;2022-12-10T05:41:46;81.93;;;31.40;;
45318;SDS011;31057;48.498;32.260;2022-12-10T05:45:50;81.47;;;29.95;;
45318;SDS011;31057;48.498;32.260;2022-12-10T05:49:54;108.47;;;30.63;;
45318;SDS011;31057;48.498;32.260;2022-12-10T05:51:56;156.15;;;35.50;;
45318;SDS011;31057;48.498;32.260;2022-12-10T05:53:58;257.65;;;40.97;;
45318;SDS011;31057;48.498;32.260;2022-12-10T05:56:04;423.25;;;51.47;;
45318;SDS011;31057;48.498;32.260;2022-12-10T05:58:07;200.43;;;36.92;;
45318;SDS011;31057;48.498;32.260;2022-12-10T06:00:09;330.05;;;45.40;;
45318;SDS011;31057;48.498;32.260;2022-12-10T06:02:12;228.98;;;38.97;;
45318;SDS011;31057;48.498;32.260;2022-12-10T08:16:26;293.98;;;43.30;;
45318;SDS011;31057;48.498;32.260;2022-12-10T08:18:30;190.55;;;37.08;;
45318;SDS011;31057;48.498;32.260;2022-12-10T08:20:32;301.98;;;42.83;;
45318;SDS011;31057;48.498;32.260;2022-12-10T08:22:34;432.50;;;54.00;;
45318;SDS011;31057;48.498;32.260;2022-12-10T08:24:36;220.48;;;39.15;;
45318;SDS011;31057;48.498;32.260;2022-12-10T08:26:38;305.83;;;43.60;;
45318;SDS011;31057;48.498;32.260;2022-12-10T08:28:41;102.38;;;31.25;;
45318;SDS011;31057;48.498;32.260;2022-12-10T08:30:48;263.58;;;40.53;;
45318;SDS011;31057;48.498;32.260;2022-12-10T08:32:50;557.63;;;64.03;;
45318;SDS011;31057;48.498;32.260;2022-12-10T08:34:52;213.05;;;41.00;;
45318;SDS011;31057;48.498;32.260;2022-12-10T08:36:54;970.60;;;98.55;;
45318;SDS011;31057;48.498;32.260;2022-12-10T08:38:56;513.70;;;68.03;;
45318;SDS011;31057;48.498;32.260;2022-12-10T08:40:58;322.58;;;44.92;;
45318;SDS011;31057;48.498;32.260;2022-12-10T08:43:00;764.50;;;81.90;;
45318;SDS011;31057;48.498;32.260;2022-12-10T08:45:02;459.60;;;56.30;;
45318;SDS011;31057;48.498;32.260;2022-12-10T08:47:04;437.55;;;63.67;;
45318;SDS011;31057;48.498;32.260;2022-12-10T08:49:07;284.08;;;41.90;;
45318;SDS011;31057;48.498;32.260;2022-12-10T08:51:10;795.28;;;86.75;;
45318;SDS011;31057;48.498;32.260;2022-12-10T08:53:14;1350.15;;;123.18;;
45318;SDS011;31057;48.498;32.260;2022-12-10T08:57:18;925.97;;;91.28;;
45318;SDS011;31057;48.498;32.260;2022-12-10T08:59:20;595.53;;;64.13;;
45318;SDS011;31057;48.498;32.260;2022-12-10T09:01:22;562.38;;;62.47;;
45318;SDS011;31057;48.498;32.260;2022-12-10T09:05:26;201.27;;;39.17;;
45318;SDS011;31057;48.498;32.260;2022-12-10T09:09:33;406.17;;;54.95;;
45318;SDS011;31057;48.498;32.260;2022-12-10T09:11:35;1132.45;;;111.50;;
45318;SDS011;31057;48.498;32.260;2022-12-10T09:15:40;1158.50;;;114.70;;
45318;SDS011;31057;48.498;32.260;2022-12-10T09:17:42;1023.67;;;105.07;;
45318;SDS011;31057;48.498;32.260;2022-12-10T09:21:45;1105.83;;;115.40;;
45318;SDS011;31057;48.498;32.260;2022-12-10T09:23:48;887.67;;;98.20;;
45318;SDS011;31057;48.498;32.260;2022-12-10T09:25:51;788.63;;;88.82;;
45318;SDS011;31057;48.498;32.260;2022-12-10T09:27:54;821.28;;;87.63;;
45318;SDS011;31057;48.498;32.260;2022-12-10T09:29:56;542.55;;;67.88;;
45318;SDS011;31057;48.498;32.260;2022-12-10T09:31:57;796.13;;;83.47;;
45318;SDS011;31057;48.498;32.260;2022-12-10T09:33:59;639.60;;;71.30;;
45318;SDS011;31057;48.498;32.260;2022-12-10T09:36:02;359.02;;;52.17;;
45318;SDS011;31057;48.498;32.260;2022-12-10T09:38:07;1086.53;;;109.57;;
45318;SDS011;31057;48.498;32.260;2022-12-10T09:40:14;490.75;;;61.38;;
45318;SDS011;31057;48.498;32.260;2022-12-10T09:42:22;591.72;;;66.78;;
45318;SDS011;31057;48.498;32.260;2022-12-10T09:47:37;660.38;;;78.78;;
45318;SDS011;31057;48.498;32.260;2022-12-10T09:50:09;1000.15;;;108.82;;
45318;SDS011;31057;48.498;32.260;2022-12-10T09:52:35;1092.22;;;109.13;;
45318;SDS011;31057;48.498;32.260;2022-12-10T09:54:43;298.27;;;51.28;;
45318;SDS011;31057;48.498;32.260;2022-12-10T09:56:50;293.27;;;48.60;;
45318;SDS011;31057;48.498;32.260;2022-12-10T09:58:53;1010.50;;;110.70;;
45318;SDS011;31057;48.498;32.260;2022-12-10T10:01:03;304.77;;;56.15;;
45318;SDS011;31057;48.498;32.260;2022-12-10T10:03:06;637.25;;;67.88;;
45318;SDS011;31057;48.498;32.260;2022-12-10T10:05:24;496.52;;;68.00;;
45318;SDS011;31057;48.498;32.260;2022-12-10T10:07:29;692.95;;;73.25;;
45318;SDS011;31057;48.498;32.260;2022-12-10T10:09:32;1403.53;;;140.43;;
45318;SDS011;31057;48.498;32.260;2022-12-10T10:11:39;533.08;;;68.72;;
45318;SDS011;31057;48.498;32.260;2022-12-10T10:13:44;287.55;;;50.63;;
45318;SDS011;31057;48.498;32.260;2022-12-10T10:15:50;676.08;;;77.05;;
45318;SDS011;31057;48.498;32.260;2022-12-10T10:17:53;824.47;;;89.70;;
45318;SDS011;31057;48.498;32.260;2022-12-10T10:19:59;575.15;;;69.50;;
45318;SDS011;31057;48.498;32.260;2022-12-10T10:22:01;538.40;;;64.72;;
45318;SDS011;31057;48.498;32.260;2022-12-10T10:24:05;239.57;;;45.25;;
45318;SDS011;31057;48.498;32.260;2022-12-10T10:26:12;897.13;;;99.65;;
45318;SDS011;31057;48.498;32.260;2022-12-10T10:28:17;188.52;;;41.83;;
45318;SDS011;31057;48.498;32.260;2022-12-10T10:30:21;956.58;;;100.63;;
45318;SDS011;31057;48.498;32.260;2022-12-10T10:32:43;595.28;;;70.07;;
45318;SDS011;31057;48.498;32.260;2022-12-10T10:34:53;846.15;;;89.28;;
45318;SDS011;31057;48.498;32.260;2022-12-10T10:36:56;225.85;;;43.00;;
45318;SDS011;31057;48.498;32.260;2022-12-10T10:39:09;747.08;;;81.82;;
45318;SDS011;31057;48.498;32.260;2022-12-10T10:41:13;672.78;;;73.80;;
45318;SDS011;31057;48.498;32.260;2022-12-10T10:43:20;165.63;;;41.83;;
45318;SDS011;31057;48.498;32.260;2022-12-10T10:47:41;516.55;;;57.92;;
45318;SDS011;31057;48.498;32.260;2022-12-10T10:49:43;721.17;;;82.97;;
45318;SDS011;31057;48.498;32.260;2022-12-10T10:51:46;902.25;;;91.38;;
45318;SDS011;31057;48.498;32.260;2022-12-10T10:53:54;718.08;;;79.38;;
45318;SDS011;31057;48.498;32.260;2022-12-10T10:55:59;855.22;;;88.90;;
45318;SDS011;31057;48.498;32.260;2022-12-10T10:58:15;456.50;;;55.72;;
45318;SDS011;31057;48.498;32.260;2022-12-10T11:00:21;627.65;;;69.90;;
45318;SDS011;31057;48.498;32.260;2022-12-10T11:02:31;615.70;;;69.72;;
45318;SDS011;31057;48.498;32.260;2022-12-10T11:06:45;704.83;;;81.80;;
45318;SDS011;31057;48.498;32.260;2022-12-10T11:08:47;366.75;;;49.63;;
45318;SDS011;31057;48.498;32.260;2022-12-10T11:15:39;516.75;;;66.20;;
45318;SDS011;31057;48.498;32.260;2022-12-10T11:17:36;636.70;;;75.30;;
45318;SDS011;31057;48.498;32.260;2022-12-10T11:22:17;535.95;;;68.00;;
45318;SDS011;31057;48.498;32.260;2022-12-10T11:24:26;429.60;;;59.08;;
45318;SDS011;31057;48.498;32.260;2022-12-10T11:33:41;950.28;;;108.10;;
45318;SDS011;31057;48.498;32.260;2022-12-10T11:38:51;835.47;;;91.43;;
45318;SDS011;31057;48.498;32.260;2022-12-10T11:48:09;1083.38;;;112.90;;
45318;SDS011;31057;48.498;32.260;2022-12-10T11:52:43;728.35;;;81.35;;
45318;SDS011;31057;48.498;32.260;2022-12-10T11:59:27;392.63;;;60.28;;
45318;SDS011;31057;48.498;32.260;2022-12-10T14:18:09;176.27;;;95.90;;
45318;SDS011;31057;48.498;32.260;2022-12-10T14:20:14;184.80;;;85.47;;
45318;SDS011;31057;48.498;32.260;2022-12-10T14:22:22;191.90;;;95.15;;
45318;SDS011;31057;48.498;32.260;2022-12-10T14:24:33;219.75;;;100.38;;
45318;SDS011;31057;48.498;32.260;2022-12-10T14:26:39;157.18;;;76.30;;
45318;SDS011;31057;48.498;32.260;2022-12-10T14:28:42;148.27;;;69.20;;
45318;SDS011;31057;48.498;32.260;2022-12-10T14:30:47;141.70;;;68.78;;
45318;SDS011;31057;48.498;32.260;2022-12-10T14:32:51;122.28;;;64.80;;
45318;SDS011;31057;48.498;32.260;2022-12-10T14:34:56;134.40;;;65.22;;
45318;SDS011;31057;48.498;32.260;2022-12-10T14:37:01;122.25;;;63.83;;
45318;SDS011;31057;48.498;32.260;2022-12-10T14:39:15;127.50;;;65.10;;
45318;SDS011;31057;48.498;32.260;2022-12-10T14:41:23;127.32;;;63.10;;
45318;SDS011;31057;48.498;32.260;2022-12-10T14:45:45;128.13;;;60.50;;
45318;SDS011;31057;48.498;32.260;2022-12-10T14:47:48;126.43;;;59.88;;
45318;SDS011;31057;48.498;32.260;2022-12-10T14:49:51;122.72;;;61.35;;
45318;SDS011;31057;48.498;32.260;2022-12-10T14:51:57;122.07;;;57.58;;
45318;SDS011;31057;48.498;32.260;2022-12-10T14:54:01;126.30;;;60.80;;
45318;SDS011;31057;48.498;32.260;2022-12-10T14:56:03;125.93;;;62.55;;
45318;SDS011;31057;48.498;32.260;2022-12-10T14:58:09;125.75;;;63.17;;
45318;SDS011;31057;48.498;32.260;2022-12-10T15:00:18;138.82;;;65.70;;
45318;SDS011;31057;48.498;32.260;2022-12-10T15:02:24;148.10;;;63.90;;
45318;SDS011;31057;48.498;32.260;2022-12-10T15:04:38;144.77;;;70.63;;
45318;SDS011;31057;48.498;32.260;2022-12-10T15:06:42;177.43;;;69.75;;
45318;SDS011;31057;48.498;32.260;2022-12-10T15:08:46;134.95;;;67.40;;
45318;SDS011;31057;48.498;32.260;2022-12-10T15:10:50;154.88;;;61.92;;
45318;SDS011;31057;48.498;32.260;2022-12-10T15:12:55;132.60;;;61.75;;
45318;SDS011;31057;48.498;32.260;2022-12-10T15:14:59;168.35;;;64.82;;
45318;SDS011;31057;48.498;32.260;2022-12-10T15:17:31;182.75;;;64.78;;
45318;SDS011;31057;48.498;32.260;2022-12-10T15:19:43;147.75;;;59.50;;
45318;SDS011;31057;48.498;32.260;2022-12-10T15:21:56;155.05;;;63.38;;
45318;SDS011;31057;48.498;32.260;2022-12-10T15:24:25;156.68;;;59.88;;
45318;SDS011;31057;48.498;32.260;2022-12-10T15:26:34;203.82;;;63.80;;
45318;SDS011;31057;48.498;32.260;2022-12-10T15:28:37;227.43;;;66.57;;
45318;SDS011;31057;48.498;32.260;2022-12-10T15:30:41;141.60;;;54.30;;
45318;SDS011;31057;48.498;32.260;2022-12-10T15:32:47;153.55;;;57.70;;
45318;SDS011;31057;48.498;32.260;2022-12-10T15:34:57;145.05;;;59.63;;
45318;SDS011;31057;48.498;32.260;2022-12-10T15:37:01;157.23;;;60.40;;
45318;SDS011;31057;48.498;32.260;2022-12-10T15:39:15;149.20;;;60.95;;
45318;SDS011;31057;48.498;32.260;2022-12-10T15:41:21;152.15;;;63.28;;
45318;SDS011;31057;48.498;32.260;2022-12-10T15:43:35;134.25;;;59.83;;
45318;SDS011;31057;48.498;32.260;2022-12-10T15:45:38;148.70;;;64.25;;
45318;SDS011;31057;48.498;32.260;2022-12-10T15:47:42;153.25;;;62.85;;
45318;SDS011;31057;48.498;32.260;2022-12-10T15:49:45;163.05;;;61.85;;
45318;SDS011;31057;48.498;32.260;2022-12-10T15:51:48;137.65;;;62.78;;
45318;SDS011;31057;48.498;32.260;2022-12-10T15:53:51;135.82;;;61.05;;
45318;SDS011;31057;48.498;32.260;2022-12-10T15:55:53;150.15;;;61.35;;
45318;SDS011;31057;48.498;32.260;2022-12-10T15:57:55;124.55;;;59.05;;
45318;SDS011;31057;48.498;32.260;2022-12-10T15:59:58;125.28;;;57.70;;
45318;SDS011;31057;48.498;32.260;2022-12-10T16:02:08;108.28;;;53.05;;
45318;SDS011;31057;48.498;32.260;2022-12-10T16:04:18;135.98;;;67.35;;
45318;SDS011;31057;48.498;32.260;2022-12-10T16:06:20;158.82;;;85.75;;
45318;SDS011;31057;48.498;32.260;2022-12-10T16:08:25;168.05;;;87.50;;
45318;SDS011;31057;48.498;32.260;2022-12-10T16:10:29;127.22;;;68.53;;
45318;SDS011;31057;48.498;32.260;2022-12-10T16:14:40;114.78;;;59.53;;
45318;SDS011;31057;48.498;32.260;2022-12-10T16:16:48;121.20;;;60.90;;
45318;SDS011;31057;48.498;32.260;2022-12-10T16:18:50;124.35;;;62.88;;
45318;SDS011;31057;48.498;32.260;2022-12-10T16:20:53;121.57;;;54.85;;
45318;SDS011;31057;48.498;32.260;2022-12-10T16:22:56;117.82;;;59.30;;
45318;SDS011;31057;48.498;32.260;2022-12-10T16:25:17;139.68;;;66.03;;
45318;SDS011;31057;48.498;32.260;2022-12-10T16:29:21;139.07;;;63.38;;
45318;SDS011;31057;48.498;32.260;2022-12-10T16:31:22;147.50;;;65.20;;
45318;SDS011;31057;48.498;32.260;2022-12-10T16:37:29;155.20;;;71.27;;
45318;SDS011;31057;48.498;32.260;2022-12-10T16:39:31;134.93;;;63.05;;
45318;SDS011;31057;48.498;32.260;2022-12-10T16:41:34;156.02;;;68.70;;
45318;SDS011;31057;48.498;32.260;2022-12-10T16:43:36;162.52;;;67.20;;
45318;SDS011;31057;48.498;32.260;2022-12-10T16:45:38;153.90;;;66.00;;
45318;SDS011;31057;48.498;32.260;2022-12-10T16:47:40;150.68;;;70.53;;
45318;SDS011;31057;48.498;32.260;2022-12-10T16:49:43;173.07;;;69.95;;
45318;SDS011;31057;48.498;32.260;2022-12-10T16:51:45;145.07;;;64.78;;
45318;SDS011;31057;48.498;32.260;2022-12-10T16:55:49;196.20;;;64.23;;
45318;SDS011;31057;48.498;32.260;2022-12-10T16:57:51;153.82;;;60.38;;
45318;SDS011;31057;48.498;32.260;2022-12-10T16:59:54;491.98;;;85.00;;
45318;SDS011;31057;48.498;32.260;2022-12-10T17:01:56;222.98;;;62.63;;
45318;SDS011;31057;48.498;32.260;2022-12-10T17:06:01;188.05;;;56.65;;
45318;SDS011;31057;48.498;32.260;2022-12-10T17:08:07;204.52;;;60.78;;
45318;SDS011;31057;48.498;32.260;2022-12-10T17:10:13;147.10;;;55.33;;
45318;SDS011;31057;48.498;32.260;2022-12-10T17:12:15;151.38;;;59.42;;
45318;SDS011;31057;48.498;32.260;2022-12-10T17:14:22;133.45;;;59.22;;
45318;SDS011;31057;48.498;32.260;2022-12-10T17:16:35;145.30;;;57.42;;
45318;SDS011;31057;48.498;32.260;2022-12-10T17:18:36;125.50;;;62.63;;
45318;SDS011;31057;48.498;32.260;2022-12-10T17:20:38;160.30;;;62.05;;
45318;SDS011;31057;48.498;32.260;2022-12-10T17:22:44;252.70;;;68.32;;
45318;SDS011;31057;48.498;32.260;2022-12-10T17:24:47;383.73;;;75.50;;
45318;SDS011;31057;48.498;32.260;2022-12-10T17:26:49;305.13;;;67.95;;
45318;SDS011;31057;48.498;32.260;2022-12-10T17:28:53;263.42;;;64.20;;
45318;SDS011;31057;48.498;32.260;2022-12-10T17:31:00;253.50;;;65.20;;
45318;SDS011;31057;48.498;32.260;2022-12-10T17:33:02;335.08;;;66.32;;
45318;SDS011;31057;48.498;32.260;2022-12-10T17:35:04;421.10;;;68.00;;
45318;SDS011;31057;48.498;32.260;2022-12-10T17:37:19;298.20;;;61.38;;
45318;SDS011;31057;48.498;32.260;2022-12-10T17:39:21;272.55;;;63.40;;
45318;SDS011;31057;48.498;32.260;2022-12-10T17:41:27;499.67;;;77.03;;
45318;SDS011;31057;48.498;32.260;2022-12-10T17:43:29;388.58;;;66.95;;
45318;SDS011;31057;48.498;32.260;2022-12-10T17:45:31;444.23;;;74.55;;
45318;SDS011;31057;48.498;32.260;2022-12-10T17:47:35;857.15;;;100.03;;
45318;SDS011;31057;48.498;32.260;2022-12-10T17:49:37;600.67;;;86.28;;
45318;SDS011;31057;48.498;32.260;2022-12-10T17:53:42;705.83;;;91.60;;
45318;SDS011;31057;48.498;32.260;2022-12-10T17:55:45;430.92;;;76.65;;
45318;SDS011;31057;48.498;32.260;2022-12-10T17:57:55;688.42;;;90.15;;
45318;SDS011;31057;48.498;32.260;2022-12-10T17:59:59;475.42;;;78.15;;
45318;SDS011;31057;48.498;32.260;2022-12-10T18:02:01;598.03;;;90.00;;
45318;SDS011;31057;48.498;32.260;2022-12-10T20:14:30;278.98;;;61.15;;
45318;SDS011;31057;48.498;32.260;2022-12-10T20:16:32;271.75;;;58.90;;
45318;SDS011;31057;48.498;32.260;2022-12-10T20:20:36;785.73;;;98.67;;
45318;SDS011;31057;48.498;32.260;2022-12-10T20:22:40;279.88;;;52.33;;
45318;SDS011;31057;48.498;32.260;2022-12-10T20:24:42;121.72;;;43.60;;
45318;SDS011;31057;48.498;32.260;2022-12-10T20:26:45;83.50;;;42.20;;
45318;SDS011;31057;48.498;32.260;2022-12-10T20:28:50;118.25;;;49.08;;
45318;SDS011;31057;48.498;32.260;2022-12-10T20:30:52;88.30;;;46.53;;
45318;SDS011;31057;48.498;32.260;2022-12-10T20:32:54;144.43;;;50.70;;
45318;SDS011;31057;48.498;32.260;2022-12-10T20:34:56;115.80;;;49.13;;
45318;SDS011;31057;48.498;32.260;2022-12-10T20:36:58;304.63;;;58.92;;
45318;SDS011;31057;48.498;32.260;2022-12-10T20:39:00;193.20;;;49.30;;
45318;SDS011;31057;48.498;32.260;2022-12-10T20:43:04;339.83;;;57.87;;
45318;SDS011;31057;48.498;32.260;2022-12-10T20:45:07;105.93;;;41.45;;
45318;SDS011;31057;48.498;32.260;2022-12-10T20:47:09;99.25;;;42.35;;
45318;SDS011;31057;48.498;32.260;2022-12-10T20:49:12;94.68;;;45.17;;
45318;SDS011;31057;48.498;32.260;2022-12-10T20:51:16;101.15;;;42.25;;
45318;SDS011;31057;48.498;32.260;2022-12-10T20:53:19;72.32;;;42.75;;
45318;SDS011;31057;48.498;32.260;2022-12-10T20:55:21;104.68;;;46.58;;
45318;SDS011;31057;48.498;32.260;2022-12-10T20:57:23;95.20;;;43.95;;
45318;SDS011;31057;48.498;32.260;2022-12-10T20:59:25;82.15;;;42.03;;
45318;SDS011;31057;48.498;32.260;2022-12-10T21:01:31;99.20;;;42.90;;
45318;SDS011;31057;48.498;32.260;2022-12-10T21:03:36;93.85;;;45.05;;
45318;SDS011;31057;48.498;32.260;2022-12-10T21:05:38;94.13;;;44.55;;
45318;SDS011;31057;48.498;32.260;2022-12-10T21:07:41;78.45;;;42.55;;
45318;SDS011;31057;48.498;32.260;2022-12-10T21:09:44;107.30;;;45.63;;
45318;SDS011;31057;48.498;32.260;2022-12-10T21:11:46;90.55;;;41.45;;
45318;SDS011;31057;48.498;32.260;2022-12-10T21:13:48;90.30;;;43.72;;
45318;SDS011;31057;48.498;32.260;2022-12-10T21:17:52;109.85;;;48.33;;
45318;SDS011;31057;48.498;32.260;2022-12-10T21:19:54;99.63;;;47.78;;
45318;SDS011;31057;48.498;32.260;2022-12-10T21:21:57;110.13;;;45.88;;
45318;SDS011;31057;48.498;32.260;2022-12-10T21:23:59;262.63;;;56.63;;
45318;SDS011;31057;48.498;32.260;2022-12-10T21:26:01;150.35;;;48.33;;
45318;SDS011;31057;48.498;32.260;2022-12-10T21:28:06;125.78;;;44.15;;
45318;SDS011;31057;48.498;32.260;2022-12-10T21:30:09;145.60;;;47.17;;
45318;SDS011;31057;48.498;32.260;2022-12-10T21:32:12;147.15;;;46.70;;
45318;SDS011;31057;48.498;32.260;2022-12-10T21:34:15;659.05;;;88.50;;
45318;SDS011;31057;48.498;32.260;2022-12-10T21:36:18;881.80;;;98.03;;
45318;SDS011;31057;48.498;32.260;2022-12-10T21:38:23;302.35;;;57.92;;
45318;SDS011;31057;48.498;32.260;2022-12-10T21:40:25;317.85;;;55.53;;
45318;SDS011;31057;48.498;32.260;2022-12-10T21:42:27;446.52;;;66.88;;
45318;SDS011;31057;48.498;32.260;2022-12-10T21:44:51;336.35;;;62.35;;
45318;SDS011;31057;48.498;32.260;2022-12-10T21:46:54;186.63;;;49.70;;
45318;SDS011;31057;48.498;32.260;2022-12-10T21:50:58;518.37;;;73.47;;
45318;SDS011;31057;48.498;32.260;2022-12-10T21:53:01;275.33;;;54.90;;
45318;SDS011;31057;48.498;32.260;2022-12-10T21:57:06;496.40;;;65.50;;
45318;SDS011;31057;48.498;32.260;2022-12-10T21:59:08;675.13;;;76.57;;
45318;SDS011;31057;48.498;32.260;2022-12-10T22:03:13;662.60;;;76.28;;
45318;SDS011;31057;48.498;32.260;2022-12-10T22:05:15;517.28;;;83.47;;
45318;SDS011;31057;48.498;32.260;2022-12-10T22:07:17;560.60;;;77.22;;
45318;SDS011;31057;48.498;32.260;2022-12-10T22:09:19;746.50;;;96.13;;
45318;SDS011;31057;48.498;32.260;2022-12-10T22:11:21;283.35;;;56.88;;
45318;SDS011;31057;48.498;32.260;2022-12-10T22:15:25;106.20;;;39.00;;
45318;SDS011;31057;48.498;32.260;2022-12-10T22:17:28;408.73;;;61.53;;
45318;SDS011;31057;48.498;32.260;2022-12-10T22:19:30;167.23;;;44.63;;
45318;SDS011;31057;48.498;32.260;2022-12-10T22:21:32;85.03;;;35.20;;
45318;SDS011;31057;48.498;32.260;2022-12-10T22:23:34;172.93;;;41.97;;
45318;SDS011;31057;48.498;32.260;2022-12-10T22:25:38;388.80;;;59.42;;
45318;SDS011;31057;48.498;32.260;2022-12-10T22:27:40;131.55;;;38.28;;
45318;SDS011;31057;48.498;32.260;2022-12-10T22:31:44;235.57;;;43.10;;